createdAt,value
2023-03-26T00:02:20.704Z,49.78
2023-03-26T00:05:08.538Z,47.85
2023-03-26T00:07:53.136Z,53.25
2023-03-26T00:10:40.770Z,61.05
2023-03-26T00:13:25.841Z,56.95
2023-03-26T00:16:13.084Z,59.40
2023-03-26T00:19:00.670Z,58.65
2023-03-26T00:21:47.737Z,56.20
2023-03-26T00:24:32.569Z,57.17
2023-03-26T00:27:17.662Z,51.13
2023-03-26T00:30:03.280Z,59.38
2023-03-26T00:32:53.686Z,49.60
2023-03-26T00:35:38.830Z,52.67
2023-03-26T00:38:25.051Z,58.13
2023-03-26T00:41:22.439Z,57.30
2023-03-26T00:44:07.351Z,58.05
2023-03-26T00:46:52.799Z,54.38
2023-03-26T00:49:38.740Z,55.92
2023-03-26T00:52:23.242Z,61.97
2023-03-26T00:55:08.832Z,60.22
2023-03-26T00:57:54.898Z,63.03
2023-03-26T01:01:13.343Z,59.45
2023-03-26T01:04:26.538Z,55.92
2023-03-26T01:07:16.194Z,63.35
2023-03-26T01:10:01.298Z,60.40
2023-03-26T01:12:46.320Z,59.92
2023-03-26T01:15:31.703Z,63.97
2023-03-26T01:18:20.144Z,59.78
2023-03-26T01:21:08.678Z,56.58
2023-03-26T01:24:04.702Z,61.60
2023-03-26T01:27:11.034Z,70.18
2023-03-26T01:30:10.047Z,72.10
2023-03-26T01:33:20.531Z,66.95
2023-03-26T01:36:35.996Z,68.35
2023-03-26T01:39:32.773Z,70.10
2023-03-26T01:42:47.418Z,62.65
2023-03-26T01:45:35.931Z,66.80
2023-03-26T01:48:29.825Z,65.38
2023-03-26T01:51:29.272Z,63.80
2023-03-26T01:54:18.555Z,62.92
2023-03-26T01:57:28.066Z,64.45
2023-03-26T02:01:03.914Z,61.25
2023-03-26T02:04:15.453Z,58.65
2023-03-26T02:07:08.790Z,64.35
2023-03-26T02:10:00.253Z,57.20
2023-03-26T02:12:45.432Z,53.95
2023-03-26T02:15:30.348Z,51.03
2023-03-26T02:18:15.129Z,54.00
2023-03-26T02:21:01.306Z,49.80
2023-03-26T02:23:48.131Z,53.05
2023-03-26T02:26:37.032Z,47.95
2023-03-26T02:29:27.876Z,52.47
2023-03-26T02:32:13.121Z,49.85
2023-03-26T02:34:58.085Z,47.42
2023-03-26T02:37:46.248Z,49.10
2023-03-26T02:40:34.731Z,46.90
2023-03-26T02:43:20.476Z,48.65
2023-03-26T02:46:05.988Z,53.03
2023-03-26T02:49:09.027Z,50.65
2023-03-26T02:51:55.696Z,50.38
2023-03-26T02:54:44.614Z,53.92
2023-03-26T02:57:40.615Z,51.88
2023-03-26T03:00:34.516Z,54.47
2023-03-26T03:03:53.604Z,58.72
2023-03-26T03:06:52.402Z,74.82
2023-03-26T03:09:37.528Z,49.30
2023-03-26T03:12:48.257Z,50.50
2023-03-26T03:15:34.268Z,46.25
2023-03-26T03:18:19.707Z,41.63
2023-03-26T03:21:05.556Z,45.08
2023-03-26T03:23:50.675Z,43.53
2023-03-26T03:26:35.829Z,42.35
2023-03-26T03:29:32.123Z,39.20
2023-03-26T03:32:30.817Z,43.22
2023-03-26T03:35:19.582Z,37.28
2023-03-26T03:38:08.142Z,44.65
2023-03-26T03:41:02.095Z,40.45
2023-03-26T03:43:48.133Z,43.90
2023-03-26T03:46:37.572Z,43.58
2023-03-26T03:49:22.715Z,47.60
2023-03-26T03:52:07.657Z,48.35
2023-03-26T03:54:59.805Z,48.28
2023-03-26T03:58:05.582Z,41.35
2023-03-26T04:01:02.442Z,44.38
2023-03-26T04:04:07.227Z,40.45
2023-03-26T04:07:17.776Z,33.20
2023-03-26T04:10:25.619Z,37.35
2023-03-26T04:13:30.946Z,35.83
2023-03-26T04:16:35.421Z,33.17
2023-03-26T04:19:20.321Z,30.58
2023-03-26T04:22:05.909Z,30.80
2023-03-26T04:24:55.610Z,25.15
2023-03-26T04:27:43.665Z,26.50
2023-03-26T04:30:53.141Z,24.00
2023-03-26T04:33:54.666Z,25.15
2023-03-26T04:36:41.796Z,23.45
2023-03-26T04:39:33.523Z,25.42
2023-03-26T04:42:53.975Z,20.20
2023-03-26T04:46:03.947Z,20.23
2023-03-26T04:48:54.535Z,17.60
2023-03-26T04:51:41.260Z,14.70
2023-03-26T04:54:40.425Z,15.88
2023-03-26T04:57:34.812Z,16.73
2023-03-26T05:00:25.544Z,15.25
2023-03-26T05:03:15.071Z,14.52
2023-03-26T05:06:01.298Z,13.30
2023-03-26T05:08:46.477Z,17.88
2023-03-26T05:11:42.714Z,15.73
2023-03-26T05:14:28.079Z,17.80
2023-03-26T05:17:14.661Z,14.98
2023-03-26T05:20:00.467Z,17.58
2023-03-26T05:22:47.245Z,15.30
2023-03-26T05:25:41.781Z,14.40
2023-03-26T05:28:52.969Z,12.30
2023-03-26T05:31:44.572Z,15.38
2023-03-26T05:34:29.585Z,11.27
2023-03-26T05:37:16.701Z,11.27
2023-03-26T05:40:19.610Z,10.32
2023-03-26T05:43:12.829Z,11.10
2023-03-26T05:46:17.592Z,10.15
2023-03-26T05:49:02.652Z,10.93
2023-03-26T05:51:53.190Z,10.25
2023-03-26T05:54:56.321Z,11.27
2023-03-26T05:58:07.099Z,11.65
2023-03-26T06:01:16.183Z,9.27
2023-03-26T06:04:31.338Z,10.23
2023-03-26T06:07:41.687Z,10.77
2023-03-26T06:10:31.116Z,9.35
2023-03-26T06:13:17.209Z,9.75
2023-03-26T06:16:03.256Z,12.20
2023-03-26T06:18:56.230Z,10.05
2023-03-26T06:21:50.434Z,10.25
2023-03-26T06:24:49.712Z,12.48
2023-03-26T06:27:42.239Z,8.20
2023-03-26T06:30:45.299Z,8.82
2023-03-26T06:33:46.357Z,10.45
2023-03-26T06:36:31.833Z,10.15
2023-03-26T06:39:16.650Z,8.90
2023-03-26T06:42:12.892Z,10.10
2023-03-26T06:45:14.789Z,11.60
2023-03-26T06:48:18.498Z,8.45
2023-03-26T06:51:15.217Z,11.13
2023-03-26T06:54:35.550Z,10.00
2023-03-26T06:57:40.785Z,11.95
2023-03-26T07:00:46.064Z,8.73
2023-03-26T07:03:53.912Z,10.85
2023-03-26T07:06:57.682Z,13.48
2023-03-26T07:10:01.278Z,9.50
2023-03-26T07:13:02.779Z,8.60
2023-03-26T07:16:16.775Z,9.55
2023-03-26T07:19:20.765Z,8.20
2023-03-26T07:22:06.247Z,11.48
2023-03-26T07:25:26.010Z,8.93
2023-03-26T07:28:16.958Z,9.32
2023-03-26T07:31:34.224Z,9.45
2023-03-26T07:34:49.930Z,8.32
2023-03-26T07:38:22.119Z,8.48
2023-03-26T07:42:10.286Z,11.38
2023-03-26T07:45:40.206Z,10.07
2023-03-26T07:48:49.475Z,10.05
2023-03-26T07:51:47.108Z,11.25
2023-03-26T07:54:55.204Z,10.48
2023-03-26T07:58:36.649Z,10.95
2023-03-26T08:01:56.283Z,9.55
2023-03-26T08:05:19.162Z,11.38
2023-03-26T08:08:31.998Z,13.18
2023-03-26T08:11:41.499Z,11.70
2023-03-26T08:17:31.238Z,11.77
2023-03-26T08:20:31.947Z,11.43
2023-03-26T08:23:32.013Z,9.93
2023-03-26T08:26:23.981Z,12.70
2023-03-26T08:29:28.991Z,8.13
2023-03-26T08:32:17.378Z,8.52
2023-03-26T08:35:03.475Z,10.38
2023-03-26T08:37:48.876Z,9.13
2023-03-26T08:40:55.234Z,11.93
2023-03-26T08:43:49.251Z,11.38
2023-03-26T08:46:52.700Z,10.05
2023-03-26T08:49:58.524Z,10.75
2023-03-26T08:53:23.214Z,10.65
2023-03-26T08:56:22.520Z,12.77
2023-03-26T08:59:12.709Z,13.93
2023-03-26T09:02:15.938Z,14.85
2023-03-26T09:05:30.875Z,14.35
2023-03-26T09:08:53.710Z,13.60
2023-03-26T09:11:42.513Z,11.90
2023-03-26T09:14:59.184Z,11.38
2023-03-26T09:17:46.639Z,11.65
2023-03-26T09:21:10.304Z,12.73
2023-03-26T09:26:46.603Z,15.70
2023-03-26T09:29:57.126Z,13.73
2023-03-26T09:33:27.874Z,13.52
2023-03-26T09:36:37.462Z,12.18
2023-03-26T09:39:40.795Z,11.85
2023-03-26T09:42:34.535Z,13.00
2023-03-26T09:45:41.093Z,11.70
2023-03-26T09:48:35.798Z,10.68
2023-03-26T09:51:53.119Z,10.57
2023-03-26T09:55:00.827Z,10.38
2023-03-26T09:57:53.073Z,12.23
2023-03-26T10:00:49.169Z,10.38
2023-03-26T10:03:34.398Z,9.50
2023-03-26T10:06:29.482Z,10.95
2023-03-26T10:09:54.804Z,10.27
2023-03-26T10:12:43.200Z,9.82
2023-03-26T10:15:31.301Z,8.15
2023-03-26T10:18:45.924Z,8.30
2023-03-26T10:21:53.943Z,10.02
2023-03-26T10:25:10.541Z,10.75
2023-03-26T10:28:37.846Z,9.20
2023-03-26T10:31:45.595Z,8.27
2023-03-26T10:35:04.064Z,9.43
2023-03-26T10:38:00.572Z,8.13
2023-03-26T10:40:59.199Z,7.97
2023-03-26T10:44:13.554Z,9.82
2023-03-26T10:47:35.834Z,10.25
2023-03-26T10:50:30.416Z,7.72
2023-03-26T10:53:25.170Z,7.38
2023-03-26T10:56:31.942Z,8.30
2023-03-26T10:59:17.155Z,6.45
2023-03-26T11:02:30.208Z,6.80
2023-03-26T11:05:53.430Z,5.97
2023-03-26T11:09:02.202Z,6.07
2023-03-26T11:11:50.073Z,6.72
2023-03-26T11:14:46.985Z,6.30
2023-03-26T11:17:50.529Z,5.97
2023-03-26T11:20:46.973Z,5.55
2023-03-26T11:26:52.272Z,5.25
2023-03-26T11:29:53.201Z,7.22
2023-03-26T11:33:02.030Z,4.93
2023-03-26T11:38:41.396Z,4.85
2023-03-26T11:41:32.307Z,4.88
2023-03-26T11:44:43.720Z,5.07
2023-03-26T11:47:35.161Z,4.80
2023-03-26T11:50:35.287Z,4.38
2023-03-26T11:53:24.147Z,8.13
2023-03-26T11:56:34.383Z,8.50
2023-03-26T11:59:53.224Z,4.47
2023-03-26T12:02:42.074Z,5.78
2023-03-26T12:05:36.010Z,6.00
2023-03-26T12:08:47.200Z,4.93
2023-03-26T12:11:35.252Z,6.10
2023-03-26T12:14:26.042Z,6.53
2023-03-26T12:20:24.325Z,5.47
2023-03-26T12:23:34.774Z,4.75
2023-03-26T12:26:29.743Z,3.50
2023-03-26T12:29:17.075Z,6.30
2023-03-26T12:32:05.334Z,4.22
2023-03-26T12:34:50.098Z,5.25
2023-03-26T12:37:42.758Z,4.95
2023-03-26T12:40:35.229Z,4.00
2023-03-26T12:44:47.650Z,4.53
2023-03-26T12:47:57.154Z,4.72
2023-03-26T12:49:40.753Z,5.43
2023-03-26T12:53:00.113Z,5.20
2023-03-26T12:56:23.855Z,5.78
2023-03-26T12:59:19.394Z,5.70
2023-03-26T13:02:22.071Z,4.88
2023-03-26T13:05:42.178Z,4.85
2023-03-26T13:08:47.589Z,6.00
2023-03-26T13:11:32.679Z,5.63
2023-03-26T13:14:40.567Z,7.82
2023-03-26T13:17:48.444Z,7.45
2023-03-26T13:20:57.424Z,8.70
2023-03-26T13:23:56.143Z,8.07
2023-03-26T13:26:59.391Z,7.70
2023-03-26T13:30:08.256Z,9.38
2023-03-26T13:32:56.747Z,6.82
2023-03-26T13:35:50.705Z,8.77
2023-03-26T13:38:58.863Z,11.20
2023-03-26T13:41:56.754Z,7.25
2023-03-26T13:47:54.279Z,9.80
2023-03-26T13:50:44.118Z,8.55
2023-03-26T13:53:41.340Z,6.75
2023-03-26T13:56:38.632Z,6.75
2023-03-26T13:59:30.773Z,6.68
2023-03-26T14:02:39.065Z,6.57
2023-03-26T14:05:53.027Z,5.90
2023-03-26T14:08:44.198Z,6.25
2023-03-26T14:11:56.177Z,6.88
2023-03-26T14:14:50.313Z,6.25
2023-03-26T14:17:46.841Z,5.60
2023-03-26T14:21:07.278Z,7.03
2023-03-26T14:24:01.334Z,7.43
2023-03-26T14:27:19.132Z,5.97
2023-03-26T14:30:03.769Z,6.85
2023-03-26T14:33:10.499Z,8.13
2023-03-26T14:36:00.989Z,6.20
2023-03-26T14:39:14.079Z,7.35
2023-03-26T14:42:06.904Z,7.82
2023-03-26T14:45:10.704Z,7.88
2023-03-26T14:48:05.715Z,6.18
2023-03-26T14:51:18.855Z,7.45
2023-03-26T14:54:11.447Z,5.32
2023-03-26T14:57:21.624Z,5.53
2023-03-26T15:00:06.642Z,5.00
2023-03-26T15:03:29.092Z,6.10
2023-03-26T15:06:25.889Z,10.80
2023-03-26T15:09:42.665Z,8.60
2023-03-26T15:13:04.830Z,6.38
2023-03-26T15:16:23.201Z,5.60
2023-03-26T15:19:27.282Z,4.82
2023-03-26T15:22:21.235Z,6.32
2023-03-26T15:25:42.659Z,4.45
2023-03-26T15:28:55.628Z,4.10
2023-03-26T15:31:41.956Z,5.57
2023-03-26T15:34:59.203Z,7.30
2023-03-26T15:38:29.531Z,5.47
2023-03-26T15:41:47.672Z,5.63
2023-03-26T15:45:00.406Z,3.92
2023-03-26T15:48:13.443Z,6.43
2023-03-26T15:51:04.205Z,6.40
2023-03-26T15:53:53.450Z,4.78
2023-03-26T15:57:00.107Z,4.80
2023-03-26T15:59:55.428Z,6.15
2023-03-26T16:02:43.327Z,6.43
2023-03-26T16:05:34.345Z,5.25
2023-03-26T16:08:46.364Z,12.55
2023-03-26T16:11:57.726Z,9.20
2023-03-26T16:15:24.569Z,9.68
2023-03-26T16:18:09.523Z,9.25
2023-03-26T16:21:03.756Z,9.65
2023-03-26T16:23:48.760Z,8.23
2023-03-26T16:26:40.017Z,7.68
2023-03-26T16:29:28.116Z,8.43
2023-03-26T16:32:16.719Z,5.97
2023-03-26T16:35:22.493Z,7.38
2023-03-26T16:38:14.178Z,8.20
2023-03-26T16:41:15.279Z,8.73
2023-03-26T16:44:14.416Z,7.07
2023-03-26T16:47:17.671Z,8.82
2023-03-26T16:50:10.123Z,8.43
2023-03-26T16:53:23.578Z,8.52
2023-03-26T16:56:21.835Z,8.82
2023-03-26T16:59:25.347Z,11.55
2023-03-26T17:02:26.136Z,10.18
2023-03-26T17:05:29.494Z,16.48
2023-03-26T17:11:17.852Z,14.65
2023-03-26T17:17:02.594Z,13.50
2023-03-26T17:20:16.650Z,12.93
2023-03-26T17:23:07.509Z,12.35
2023-03-26T17:26:08.011Z,12.68
2023-03-26T17:29:19.766Z,10.90
2023-03-26T17:35:01.620Z,6.82
2023-03-26T17:37:48.168Z,6.88
2023-03-26T17:40:53.912Z,7.15
2023-03-26T17:43:41.955Z,2.45
2023-03-26T17:46:41.976Z,4.85
2023-03-26T17:49:31.393Z,4.72
2023-03-26T17:53:06.084Z,4.97
2023-03-26T17:55:52.072Z,5.93
2023-03-26T17:58:44.629Z,7.15
2023-03-26T18:01:39.251Z,5.40
2023-03-26T18:04:38.730Z,6.53
2023-03-26T18:07:57.551Z,6.80
2023-03-26T18:11:15.163Z,9.20
2023-03-26T18:14:08.660Z,13.73
2023-03-26T18:16:59.453Z,10.15
2023-03-26T18:19:55.144Z,12.57
2023-03-26T18:22:39.960Z,11.63
2023-03-26T18:25:31.528Z,10.95
2023-03-26T18:28:16.473Z,10.43
2023-03-26T18:31:18.099Z,9.02
2023-03-26T18:34:11.204Z,6.72
2023-03-26T18:37:02.370Z,6.22
2023-03-26T18:39:56.422Z,5.00
2023-03-26T18:42:45.221Z,6.38
2023-03-26T18:45:38.747Z,9.10
2023-03-26T18:48:25.321Z,9.00
2023-03-26T18:51:12.646Z,7.65
2023-03-26T18:54:04.283Z,9.32
2023-03-26T18:56:50.674Z,9.02
2023-03-26T18:59:38.050Z,12.45
2023-03-26T19:02:26.564Z,12.30
2023-03-26T19:05:16.215Z,12.13
2023-03-26T19:08:05.740Z,10.88
2023-03-26T19:10:52.639Z,11.88
2023-03-26T19:13:42.360Z,12.07
2023-03-26T19:16:33.211Z,10.63
2023-03-26T19:19:22.492Z,12.13
2023-03-26T19:22:11.898Z,9.27
2023-03-26T19:25:00.358Z,8.30
2023-03-26T19:27:45.178Z,10.13
2023-03-26T19:30:33.464Z,7.70
2023-03-26T19:33:20.684Z,6.95
2023-03-26T19:36:20.530Z,6.70
2023-03-26T19:39:12.220Z,7.53
2023-03-26T19:41:57.284Z,8.75
2023-03-26T19:44:42.874Z,9.50
2023-03-26T19:47:48.678Z,6.95
2023-03-26T19:50:54.202Z,5.95
2023-03-26T19:53:43.130Z,8.80
2023-03-26T19:56:28.225Z,8.68
2023-03-26T19:59:14.066Z,20.88
2023-03-26T20:01:58.732Z,16.88
2023-03-26T20:04:44.028Z,14.52
2023-03-26T20:07:34.941Z,14.65
2023-03-26T20:10:20.826Z,13.13
2023-03-26T20:13:14.200Z,11.43
2023-03-26T20:16:16.357Z,10.40
2023-03-26T20:19:01.852Z,9.98
2023-03-26T20:21:46.970Z,10.23
2023-03-26T20:24:32.946Z,10.15
2023-03-26T20:27:18.675Z,9.85
2023-03-26T20:30:05.252Z,8.52
2023-03-26T20:32:51.630Z,9.55
2023-03-26T20:35:57.926Z,9.07
2023-03-26T20:38:44.405Z,8.00
2023-03-26T20:41:29.403Z,6.93
2023-03-26T20:44:18.212Z,5.50
2023-03-26T20:47:03.251Z,7.10
2023-03-26T20:49:48.156Z,6.38
2023-03-26T20:55:22.498Z,6.70
2023-03-26T20:58:12.880Z,7.20
2023-03-26T21:01:00.048Z,7.75
2023-03-26T21:03:45.607Z,9.40
2023-03-26T21:06:31.079Z,9.15
2023-03-26T21:09:17.900Z,8.73
2023-03-26T21:12:09.063Z,9.05
2023-03-26T21:14:55.971Z,7.90
2023-03-26T21:17:41.312Z,10.43
2023-03-26T21:20:32.123Z,9.40
2023-03-26T21:23:29.894Z,9.73
2023-03-26T21:26:17.348Z,11.18
2023-03-26T21:29:02.302Z,8.75
2023-03-26T21:31:47.549Z,6.80
2023-03-26T21:34:32.904Z,7.07
2023-03-26T21:37:18.692Z,5.78
2023-03-26T21:40:13.594Z,6.32
2023-03-26T21:42:58.730Z,6.85
2023-03-26T21:45:44.653Z,10.90
2023-03-26T21:48:29.586Z,5.90
2023-03-26T21:51:14.588Z,7.10
2023-03-26T21:53:59.940Z,6.10
2023-03-26T21:57:17.092Z,7.38
2023-03-26T22:00:01.547Z,6.95
2023-03-26T22:03:05.012Z,9.45
2023-03-26T22:05:50.313Z,8.30
2023-03-26T22:08:38.244Z,9.35
2023-03-26T22:11:23.303Z,10.85
2023-03-26T22:14:08.088Z,9.75
2023-03-26T22:16:53.100Z,10.65
2023-03-26T22:19:37.953Z,9.18
2023-03-26T22:22:25.593Z,11.02
2023-03-26T22:25:10.608Z,13.30
2023-03-26T22:27:56.806Z,9.90
2023-03-26T22:30:41.816Z,8.93
2023-03-26T22:33:26.468Z,7.40
2023-03-26T22:36:22.782Z,6.53
2023-03-26T22:39:08.440Z,7.82
2023-03-26T22:41:53.849Z,7.32
2023-03-26T22:44:39.123Z,10.07
2023-03-26T22:47:24.341Z,8.23
2023-03-26T22:50:09.412Z,9.00
2023-03-26T22:52:54.346Z,8.35
2023-03-26T22:55:39.455Z,6.20
2023-03-26T22:58:25.403Z,7.13
2023-03-26T23:01:17.387Z,11.88
2023-03-26T23:04:02.995Z,14.45
2023-03-26T23:06:48.008Z,21.45
2023-03-26T23:09:33.001Z,12.68
2023-03-26T23:12:17.902Z,12.38
2023-03-26T23:15:04.640Z,9.13
2023-03-26T23:17:54.314Z,7.30
2023-03-26T23:20:42.209Z,7.68
2023-03-26T23:23:32.131Z,5.30
2023-03-26T23:26:17.313Z,5.72
2023-03-26T23:29:04.112Z,7.13
2023-03-26T23:31:49.156Z,8.45
2023-03-26T23:34:33.894Z,6.78
2023-03-26T23:37:22.430Z,8.40
2023-03-26T23:40:11.827Z,8.40
2023-03-26T23:42:56.453Z,6.30
2023-03-26T23:45:44.345Z,8.80
2023-03-26T23:48:29.033Z,7.15
2023-03-26T23:51:14.141Z,6.55
2023-03-26T23:53:59.650Z,7.18
2023-03-26T23:56:44.827Z,6.30
2023-03-26T23:59:29.472Z,8.38
